sensor_id;sensor_type;location;lat;lon;timestamp;P1;durP1;ratioP1;P2;durP2;ratioP2
43620;SDS011;29213;50.770;7.298;2022-10-17T00:01:10;4.22;;;2.70;;
43620;SDS011;29213;50.770;7.298;2022-10-17T00:03:37;5.50;;;2.47;;
43620;SDS011;29213;50.770;7.298;2022-10-17T00:06:04;3.90;;;2.50;;
43620;SDS011;29213;50.770;7.298;2022-10-17T00:08:35;5.03;;;2.80;;
43620;SDS011;29213;50.770;7.298;2022-10-17T00:11:03;6.20;;;3.10;;
43620;SDS011;29213;50.770;7.298;2022-10-17T00:13:31;5.68;;;3.63;;
43620;SDS011;29213;50.770;7.298;2022-10-17T00:15:57;4.72;;;2.97;;
43620;SDS011;29213;50.770;7.298;2022-10-17T00:18:23;6.03;;;2.90;;
43620;SDS011;29213;50.770;7.298;2022-10-17T00:20:48;5.47;;;3.28;;
43620;SDS011;29213;50.770;7.298;2022-10-17T00:23:14;4.60;;;3.35;;
43620;SDS011;29213;50.770;7.298;2022-10-17T00:25:39;4.30;;;3.00;;
43620;SDS011;29213;50.770;7.298;2022-10-17T00:28:05;3.97;;;2.90;;
43620;SDS011;29213;50.770;7.298;2022-10-17T00:30:33;4.05;;;2.67;;
43620;SDS011;29213;50.770;7.298;2022-10-17T00:32:58;5.18;;;3.00;;
43620;SDS011;29213;50.770;7.298;2022-10-17T00:35:23;4.18;;;2.88;;
43620;SDS011;29213;50.770;7.298;2022-10-17T00:37:49;5.28;;;3.28;;
43620;SDS011;29213;50.770;7.298;2022-10-17T00:40:14;4.78;;;3.17;;
43620;SDS011;29213;50.770;7.298;2022-10-17T00:42:39;6.75;;;3.20;;
43620;SDS011;29213;50.770;7.298;2022-10-17T00:45:17;6.90;;;3.05;;
43620;SDS011;29213;50.770;7.298;2022-10-17T00:47:50;4.43;;;3.10;;
43620;SDS011;29213;50.770;7.298;2022-10-17T00:50:28;4.70;;;2.58;;
43620;SDS011;29213;50.770;7.298;2022-10-17T00:52:53;5.05;;;3.03;;
43620;SDS011;29213;50.770;7.298;2022-10-17T00:55:23;5.70;;;2.95;;
43620;SDS011;29213;50.770;7.298;2022-10-17T00:57:53;4.15;;;2.80;;
43620;SDS011;29213;50.770;7.298;2022-10-17T01:00:19;5.32;;;2.90;;
43620;SDS011;29213;50.770;7.298;2022-10-17T01:02:45;4.47;;;3.00;;
43620;SDS011;29213;50.770;7.298;2022-10-17T01:05:11;4.80;;;2.90;;
43620;SDS011;29213;50.770;7.298;2022-10-17T01:07:38;4.75;;;2.85;;
43620;SDS011;29213;50.770;7.298;2022-10-17T01:10:05;3.88;;;2.70;;
43620;SDS011;29213;50.770;7.298;2022-10-17T01:15:40;3.63;;;2.50;;
43620;SDS011;29213;50.770;7.298;2022-10-17T01:32:34;4.55;;;2.60;;
43620;SDS011;29213;50.770;7.298;2022-10-17T01:37:45;4.00;;;2.50;;
43620;SDS011;29213;50.770;7.298;2022-10-17T01:40:26;4.47;;;2.78;;
43620;SDS011;29213;50.770;7.298;2022-10-17T01:43:09;5.43;;;2.47;;
43620;SDS011;29213;50.770;7.298;2022-10-17T01:48:33;5.00;;;2.50;;
43620;SDS011;29213;50.770;7.298;2022-10-17T01:51:04;4.03;;;2.83;;
43620;SDS011;29213;50.770;7.298;2022-10-17T01:53:33;4.00;;;2.60;;
43620;SDS011;29213;50.770;7.298;2022-10-17T01:56:08;3.90;;;2.40;;
43620;SDS011;29213;50.770;7.298;2022-10-17T01:58:38;3.85;;;2.33;;
43620;SDS011;29213;50.770;7.298;2022-10-17T02:01:08;3.72;;;2.60;;
43620;SDS011;29213;50.770;7.298;2022-10-17T02:03:36;3.92;;;2.40;;
43620;SDS011;29213;50.770;7.298;2022-10-17T02:06:05;3.83;;;2.35;;
43620;SDS011;29213;50.770;7.298;2022-10-17T02:08:43;3.90;;;2.40;;
43620;SDS011;29213;50.770;7.298;2022-10-17T02:11:17;4.93;;;2.45;;
43620;SDS011;29213;50.770;7.298;2022-10-17T02:22:17;4.75;;;2.60;;
43620;SDS011;29213;50.770;7.298;2022-10-17T02:24:56;5.68;;;2.80;;
43620;SDS011;29213;50.770;7.298;2022-10-17T02:30:22;7.30;;;3.38;;
43620;SDS011;29213;50.770;7.298;2022-10-17T02:32:57;4.90;;;3.03;;
43620;SDS011;29213;50.770;7.298;2022-10-17T02:35:37;5.85;;;3.05;;
43620;SDS011;29213;50.770;7.298;2022-10-17T02:38:06;5.70;;;3.05;;
43620;SDS011;29213;50.770;7.298;2022-10-17T02:40:35;7.35;;;3.15;;
43620;SDS011;29213;50.770;7.298;2022-10-17T02:43:01;4.00;;;2.72;;
43620;SDS011;29213;50.770;7.298;2022-10-17T02:45:27;4.72;;;2.42;;
43620;SDS011;29213;50.770;7.298;2022-10-17T02:48:11;4.22;;;3.00;;
43620;SDS011;29213;50.770;7.298;2022-10-17T02:51:03;5.53;;;3.10;;
43620;SDS011;29213;50.770;7.298;2022-10-17T02:54:03;4.80;;;3.00;;
43620;SDS011;29213;50.770;7.298;2022-10-17T02:56:23;5.15;;;3.05;;
43620;SDS011;29213;50.770;7.298;2022-10-17T02:58:54;4.05;;;3.08;;
43620;SDS011;29213;50.770;7.298;2022-10-17T03:01:23;5.95;;;3.20;;
43620;SDS011;29213;50.770;7.298;2022-10-17T03:03:49;5.50;;;3.05;;
43620;SDS011;29213;50.770;7.298;2022-10-17T03:06:14;5.72;;;2.85;;
43620;SDS011;29213;50.770;7.298;2022-10-17T03:08:40;4.95;;;2.88;;
43620;SDS011;29213;50.770;7.298;2022-10-17T03:11:06;5.15;;;3.00;;
43620;SDS011;29213;50.770;7.298;2022-10-17T03:13:31;6.30;;;3.30;;
43620;SDS011;29213;50.770;7.298;2022-10-17T03:15:56;7.32;;;2.90;;
43620;SDS011;29213;50.770;7.298;2022-10-17T03:18:22;5.82;;;2.92;;
43620;SDS011;29213;50.770;7.298;2022-10-17T03:20:47;6.53;;;3.00;;
43620;SDS011;29213;50.770;7.298;2022-10-17T03:23:13;7.20;;;3.60;;
43620;SDS011;29213;50.770;7.298;2022-10-17T03:25:38;5.50;;;2.97;;
43620;SDS011;29213;50.770;7.298;2022-10-17T03:28:04;4.45;;;3.10;;
43620;SDS011;29213;50.770;7.298;2022-10-17T03:30:30;5.93;;;3.22;;
43620;SDS011;29213;50.770;7.298;2022-10-17T03:32:56;5.07;;;3.15;;
43620;SDS011;29213;50.770;7.298;2022-10-17T03:35:22;4.88;;;3.20;;
43620;SDS011;29213;50.770;7.298;2022-10-17T03:37:47;4.68;;;2.70;;
43620;SDS011;29213;50.770;7.298;2022-10-17T03:40:13;5.15;;;3.10;;
43620;SDS011;29213;50.770;7.298;2022-10-17T03:42:38;4.72;;;3.00;;
43620;SDS011;29213;50.770;7.298;2022-10-17T03:45:04;5.82;;;3.22;;
43620;SDS011;29213;50.770;7.298;2022-10-17T03:47:30;5.53;;;2.92;;
43620;SDS011;29213;50.770;7.298;2022-10-17T03:49:55;5.15;;;3.13;;
43620;SDS011;29213;50.770;7.298;2022-10-17T03:52:21;3.92;;;2.85;;
43620;SDS011;29213;50.770;7.298;2022-10-17T03:54:46;4.68;;;3.22;;
43620;SDS011;29213;50.770;7.298;2022-10-17T03:57:11;5.35;;;3.30;;
43620;SDS011;29213;50.770;7.298;2022-10-17T03:59:37;4.43;;;3.13;;
43620;SDS011;29213;50.770;7.298;2022-10-17T04:02:02;4.45;;;3.08;;
43620;SDS011;29213;50.770;7.298;2022-10-17T04:04:28;5.80;;;3.20;;
43620;SDS011;29213;50.770;7.298;2022-10-17T04:06:53;4.43;;;3.20;;
43620;SDS011;29213;50.770;7.298;2022-10-17T04:09:18;7.40;;;3.00;;
43620;SDS011;29213;50.770;7.298;2022-10-17T04:11:44;4.60;;;2.92;;
43620;SDS011;29213;50.770;7.298;2022-10-17T04:14:09;7.40;;;3.60;;
43620;SDS011;29213;50.770;7.298;2022-10-17T04:16:35;6.35;;;3.10;;
43620;SDS011;29213;50.770;7.298;2022-10-17T04:19:01;4.45;;;3.00;;
43620;SDS011;29213;50.770;7.298;2022-10-17T04:21:27;8.40;;;3.15;;
43620;SDS011;29213;50.770;7.298;2022-10-17T04:23:53;4.78;;;3.00;;
43620;SDS011;29213;50.770;7.298;2022-10-17T04:26:23;6.45;;;2.70;;
43620;SDS011;29213;50.770;7.298;2022-10-17T04:28:49;5.05;;;2.70;;
43620;SDS011;29213;50.770;7.298;2022-10-17T04:31:15;3.92;;;2.67;;
43620;SDS011;29213;50.770;7.298;2022-10-17T04:33:42;4.30;;;2.67;;
43620;SDS011;29213;50.770;7.298;2022-10-17T04:36:12;5.03;;;2.80;;
43620;SDS011;29213;50.770;7.298;2022-10-17T04:38:39;6.10;;;3.00;;
43620;SDS011;29213;50.770;7.298;2022-10-17T04:41:05;6.53;;;2.92;;
43620;SDS011;29213;50.770;7.298;2022-10-17T04:46:01;4.53;;;2.88;;
43620;SDS011;29213;50.770;7.298;2022-10-17T04:48:28;6.60;;;3.47;;
43620;SDS011;29213;50.770;7.298;2022-10-17T04:50:58;4.32;;;3.10;;
43620;SDS011;29213;50.770;7.298;2022-10-17T04:53:32;4.47;;;2.97;;
43620;SDS011;29213;50.770;7.298;2022-10-17T04:55:59;4.70;;;2.90;;
43620;SDS011;29213;50.770;7.298;2022-10-17T04:58:25;4.07;;;2.50;;
43620;SDS011;29213;50.770;7.298;2022-10-17T05:00:53;3.80;;;2.83;;
43620;SDS011;29213;50.770;7.298;2022-10-17T05:03:19;4.00;;;2.58;;
43620;SDS011;29213;50.770;7.298;2022-10-17T05:05:44;4.72;;;2.70;;
43620;SDS011;29213;50.770;7.298;2022-10-17T05:08:10;5.00;;;2.60;;
43620;SDS011;29213;50.770;7.298;2022-10-17T05:10:40;6.18;;;3.00;;
43620;SDS011;29213;50.770;7.298;2022-10-17T05:13:07;6.15;;;3.40;;
43620;SDS011;29213;50.770;7.298;2022-10-17T05:15:33;5.47;;;3.22;;
43620;SDS011;29213;50.770;7.298;2022-10-17T05:17:59;5.20;;;3.30;;
43620;SDS011;29213;50.770;7.298;2022-10-17T05:20:25;7.43;;;3.38;;
43620;SDS011;29213;50.770;7.298;2022-10-17T05:22:51;7.22;;;3.47;;
43620;SDS011;29213;50.770;7.298;2022-10-17T05:25:17;6.50;;;3.45;;
43620;SDS011;29213;50.770;7.298;2022-10-17T05:27:43;6.47;;;3.40;;
43620;SDS011;29213;50.770;7.298;2022-10-17T05:30:08;7.93;;;3.47;;
43620;SDS011;29213;50.770;7.298;2022-10-17T05:32:34;4.30;;;3.10;;
43620;SDS011;29213;50.770;7.298;2022-10-17T05:35:00;7.85;;;3.47;;
43620;SDS011;29213;50.770;7.298;2022-10-17T05:37:25;6.13;;;3.30;;
43620;SDS011;29213;50.770;7.298;2022-10-17T05:39:53;5.50;;;2.85;;
43620;SDS011;29213;50.770;7.298;2022-10-17T05:42:19;4.25;;;2.53;;
43620;SDS011;29213;50.770;7.298;2022-10-17T05:44:44;8.35;;;3.75;;
43620;SDS011;29213;50.770;7.298;2022-10-17T05:47:09;5.60;;;3.28;;
43620;SDS011;29213;50.770;7.298;2022-10-17T05:49:35;6.10;;;3.90;;
43620;SDS011;29213;50.770;7.298;2022-10-17T05:52:00;5.93;;;3.60;;
43620;SDS011;29213;50.770;7.298;2022-10-17T05:54:26;5.85;;;3.10;;
43620;SDS011;29213;50.770;7.298;2022-10-17T05:56:52;7.95;;;3.92;;
43620;SDS011;29213;50.770;7.298;2022-10-17T05:59:18;6.28;;;3.80;;
43620;SDS011;29213;50.770;7.298;2022-10-17T06:01:43;6.45;;;3.53;;
43620;SDS011;29213;50.770;7.298;2022-10-17T06:04:09;6.53;;;3.10;;
43620;SDS011;29213;50.770;7.298;2022-10-17T06:06:35;7.97;;;3.58;;
43620;SDS011;29213;50.770;7.298;2022-10-17T06:09:02;7.18;;;3.40;;
43620;SDS011;29213;50.770;7.298;2022-10-17T06:11:28;5.75;;;3.63;;
43620;SDS011;29213;50.770;7.298;2022-10-17T06:13:53;5.65;;;3.10;;
43620;SDS011;29213;50.770;7.298;2022-10-17T06:16:19;7.05;;;3.35;;
43620;SDS011;29213;50.770;7.298;2022-10-17T06:18:44;7.25;;;3.20;;
43620;SDS011;29213;50.770;7.298;2022-10-17T06:21:10;7.32;;;3.45;;
43620;SDS011;29213;50.770;7.298;2022-10-17T06:23:36;5.55;;;3.28;;
43620;SDS011;29213;50.770;7.298;2022-10-17T06:26:03;6.53;;;3.63;;
43620;SDS011;29213;50.770;7.298;2022-10-17T06:28:30;4.85;;;3.38;;
43620;SDS011;29213;50.770;7.298;2022-10-17T06:30:55;5.95;;;3.40;;
43620;SDS011;29213;50.770;7.298;2022-10-17T06:33:21;6.85;;;3.20;;
43620;SDS011;29213;50.770;7.298;2022-10-17T06:35:51;4.88;;;3.35;;
43620;SDS011;29213;50.770;7.298;2022-10-17T06:38:20;10.15;;;3.70;;
43620;SDS011;29213;50.770;7.298;2022-10-17T06:40:46;9.40;;;3.30;;
43620;SDS011;29213;50.770;7.298;2022-10-17T06:43:12;5.60;;;3.17;;
43620;SDS011;29213;50.770;7.298;2022-10-17T06:45:38;4.95;;;3.30;;
43620;SDS011;29213;50.770;7.298;2022-10-17T06:48:04;5.40;;;3.22;;
43620;SDS011;29213;50.770;7.298;2022-10-17T06:50:29;6.55;;;3.30;;
43620;SDS011;29213;50.770;7.298;2022-10-17T06:52:55;8.02;;;3.78;;
43620;SDS011;29213;50.770;7.298;2022-10-17T06:55:21;5.55;;;3.45;;
43620;SDS011;29213;50.770;7.298;2022-10-17T06:57:47;6.53;;;3.20;;
43620;SDS011;29213;50.770;7.298;2022-10-17T07:00:12;6.55;;;3.40;;
43620;SDS011;29213;50.770;7.298;2022-10-17T07:02:38;7.00;;;3.40;;
43620;SDS011;29213;50.770;7.298;2022-10-17T07:05:03;5.88;;;2.92;;
43620;SDS011;29213;50.770;7.298;2022-10-17T07:07:30;7.90;;;2.90;;
43620;SDS011;29213;50.770;7.298;2022-10-17T07:09:56;5.72;;;2.85;;
43620;SDS011;29213;50.770;7.298;2022-10-17T07:12:22;6.15;;;3.25;;
43620;SDS011;29213;50.770;7.298;2022-10-17T07:14:48;7.45;;;3.63;;
43620;SDS011;29213;50.770;7.298;2022-10-17T07:17:15;6.32;;;3.03;;
43620;SDS011;29213;50.770;7.298;2022-10-17T07:19:41;6.72;;;3.42;;
43620;SDS011;29213;50.770;7.298;2022-10-17T07:22:07;6.93;;;3.10;;
43620;SDS011;29213;50.770;7.298;2022-10-17T07:24:33;5.22;;;3.00;;
43620;SDS011;29213;50.770;7.298;2022-10-17T07:26:59;9.48;;;3.20;;
43620;SDS011;29213;50.770;7.298;2022-10-17T07:29:24;7.32;;;3.58;;
43620;SDS011;29213;50.770;7.298;2022-10-17T07:31:50;7.88;;;3.58;;
43620;SDS011;29213;50.770;7.298;2022-10-17T07:34:16;5.70;;;2.70;;
43620;SDS011;29213;50.770;7.298;2022-10-17T07:36:42;4.75;;;3.05;;
43620;SDS011;29213;50.770;7.298;2022-10-17T07:39:08;5.90;;;3.10;;
43620;SDS011;29213;50.770;7.298;2022-10-17T07:41:33;8.02;;;3.25;;
43620;SDS011;29213;50.770;7.298;2022-10-17T07:43:59;6.22;;;3.22;;
43620;SDS011;29213;50.770;7.298;2022-10-17T07:46:24;5.10;;;2.95;;
43620;SDS011;29213;50.770;7.298;2022-10-17T07:48:49;5.00;;;2.90;;
43620;SDS011;29213;50.770;7.298;2022-10-17T07:51:15;5.85;;;3.20;;
43620;SDS011;29213;50.770;7.298;2022-10-17T07:53:42;6.55;;;3.25;;
43620;SDS011;29213;50.770;7.298;2022-10-17T07:56:08;5.00;;;3.00;;
43620;SDS011;29213;50.770;7.298;2022-10-17T07:58:35;9.02;;;3.47;;
43620;SDS011;29213;50.770;7.298;2022-10-17T08:01:02;6.57;;;3.10;;
43620;SDS011;29213;50.770;7.298;2022-10-17T08:03:28;10.25;;;2.80;;
43620;SDS011;29213;50.770;7.298;2022-10-17T08:05:57;4.85;;;2.70;;
43620;SDS011;29213;50.770;7.298;2022-10-17T08:08:24;5.43;;;3.10;;
43620;SDS011;29213;50.770;7.298;2022-10-17T08:10:49;6.75;;;2.75;;
43620;SDS011;29213;50.770;7.298;2022-10-17T08:13:15;5.38;;;2.70;;
43620;SDS011;29213;50.770;7.298;2022-10-17T08:15:40;4.97;;;3.00;;
43620;SDS011;29213;50.770;7.298;2022-10-17T08:18:06;5.75;;;2.97;;
43620;SDS011;29213;50.770;7.298;2022-10-17T08:20:32;7.65;;;3.40;;
43620;SDS011;29213;50.770;7.298;2022-10-17T08:22:57;8.02;;;3.15;;
43620;SDS011;29213;50.770;7.298;2022-10-17T08:25:22;8.23;;;3.30;;
43620;SDS011;29213;50.770;7.298;2022-10-17T08:27:48;7.35;;;3.38;;
43620;SDS011;29213;50.770;7.298;2022-10-17T08:30:13;4.72;;;2.85;;
43620;SDS011;29213;50.770;7.298;2022-10-17T08:32:39;5.57;;;3.22;;
43620;SDS011;29213;50.770;7.298;2022-10-17T08:35:05;5.28;;;2.80;;
43620;SDS011;29213;50.770;7.298;2022-10-17T08:37:31;5.65;;;3.00;;
43620;SDS011;29213;50.770;7.298;2022-10-17T08:39:56;9.27;;;3.50;;
43620;SDS011;29213;50.770;7.298;2022-10-17T08:42:41;5.95;;;3.00;;
43620;SDS011;29213;50.770;7.298;2022-10-17T08:45:29;6.15;;;3.15;;
43620;SDS011;29213;50.770;7.298;2022-10-17T08:48:00;6.10;;;2.97;;
43620;SDS011;29213;50.770;7.298;2022-10-17T08:50:34;8.23;;;2.92;;
43620;SDS011;29213;50.770;7.298;2022-10-17T08:55:50;5.35;;;2.78;;
43620;SDS011;29213;50.770;7.298;2022-10-17T08:58:19;5.95;;;3.00;;
43620;SDS011;29213;50.770;7.298;2022-10-17T09:03:51;5.72;;;3.17;;
43620;SDS011;29213;50.770;7.298;2022-10-17T09:06:49;4.88;;;2.90;;
43620;SDS011;29213;50.770;7.298;2022-10-17T09:17:52;6.53;;;3.33;;
43620;SDS011;29213;50.770;7.298;2022-10-17T09:20:25;4.63;;;3.20;;
43620;SDS011;29213;50.770;7.298;2022-10-17T09:22:57;5.97;;;3.30;;
43620;SDS011;29213;50.770;7.298;2022-10-17T09:25:26;4.72;;;2.83;;
43620;SDS011;29213;50.770;7.298;2022-10-17T09:30:53;5.18;;;3.10;;
43620;SDS011;29213;50.770;7.298;2022-10-17T09:33:27;7.22;;;3.20;;
43620;SDS011;29213;50.770;7.298;2022-10-17T09:36:25;6.25;;;2.80;;
43620;SDS011;29213;50.770;7.298;2022-10-17T09:38:59;5.05;;;2.50;;
43620;SDS011;29213;50.770;7.298;2022-10-17T09:41:31;5.18;;;2.65;;
43620;SDS011;29213;50.770;7.298;2022-10-17T09:44:13;3.83;;;2.63;;
43620;SDS011;29213;50.770;7.298;2022-10-17T09:46:42;5.45;;;3.13;;
43620;SDS011;29213;50.770;7.298;2022-10-17T09:49:17;5.38;;;2.78;;
43620;SDS011;29213;50.770;7.298;2022-10-17T09:51:46;6.18;;;3.00;;
43620;SDS011;29213;50.770;7.298;2022-10-17T09:54:23;5.53;;;2.67;;
43620;SDS011;29213;50.770;7.298;2022-10-17T09:56:59;7.18;;;3.38;;
43620;SDS011;29213;50.770;7.298;2022-10-17T09:59:40;5.30;;;2.50;;
43620;SDS011;29213;50.770;7.298;2022-10-17T10:02:15;5.07;;;2.47;;
43620;SDS011;29213;50.770;7.298;2022-10-17T10:05:04;6.28;;;2.95;;
43620;SDS011;29213;50.770;7.298;2022-10-17T10:07:40;5.83;;;3.10;;
43620;SDS011;29213;50.770;7.298;2022-10-17T10:10:22;4.25;;;2.97;;
43620;SDS011;29213;50.770;7.298;2022-10-17T10:15:47;4.65;;;2.42;;
43620;SDS011;29213;50.770;7.298;2022-10-17T10:20:51;5.70;;;2.75;;
43620;SDS011;29213;50.770;7.298;2022-10-17T10:29:15;5.53;;;2.72;;
43620;SDS011;29213;50.770;7.298;2022-10-17T10:31:43;7.93;;;2.80;;
43620;SDS011;29213;50.770;7.298;2022-10-17T10:34:18;4.93;;;2.92;;
43620;SDS011;29213;50.770;7.298;2022-10-17T10:36:52;4.47;;;2.90;;
43620;SDS011;29213;50.770;7.298;2022-10-17T10:42:03;4.57;;;2.25;;
43620;SDS011;29213;50.770;7.298;2022-10-17T10:44:32;6.03;;;2.90;;
43620;SDS011;29213;50.770;7.298;2022-10-17T10:47:07;3.97;;;2.42;;
43620;SDS011;29213;50.770;7.298;2022-10-17T10:49:39;4.25;;;2.40;;
43620;SDS011;29213;50.770;7.298;2022-10-17T10:52:06;4.30;;;2.15;;
43620;SDS011;29213;50.770;7.298;2022-10-17T10:54:36;6.57;;;2.70;;
43620;SDS011;29213;50.770;7.298;2022-10-17T10:57:07;3.78;;;2.45;;
43620;SDS011;29213;50.770;7.298;2022-10-17T10:59:59;3.88;;;2.30;;
43620;SDS011;29213;50.770;7.298;2022-10-17T11:02:41;6.15;;;2.75;;
43620;SDS011;29213;50.770;7.298;2022-10-17T11:05:31;4.03;;;2.47;;
43620;SDS011;29213;50.770;7.298;2022-10-17T11:10:52;8.13;;;3.03;;
43620;SDS011;29213;50.770;7.298;2022-10-17T11:13:32;4.80;;;2.40;;
43620;SDS011;29213;50.770;7.298;2022-10-17T11:18:51;3.80;;;2.20;;
43620;SDS011;29213;50.770;7.298;2022-10-17T11:22:10;4.63;;;2.35;;
43620;SDS011;29213;50.770;7.298;2022-10-17T11:24:29;6.20;;;2.67;;
43620;SDS011;29213;50.770;7.298;2022-10-17T11:27:12;4.28;;;2.40;;
43620;SDS011;29213;50.770;7.298;2022-10-17T11:29:38;6.13;;;2.90;;
43620;SDS011;29213;50.770;7.298;2022-10-17T11:32:10;4.97;;;2.72;;
43620;SDS011;29213;50.770;7.298;2022-10-17T11:34:41;4.60;;;2.60;;
43620;SDS011;29213;50.770;7.298;2022-10-17T11:37:15;3.85;;;2.38;;
43620;SDS011;29213;50.770;7.298;2022-10-17T11:39:47;6.47;;;3.38;;
43620;SDS011;29213;50.770;7.298;2022-10-17T11:42:19;7.65;;;2.92;;
43620;SDS011;29213;50.770;7.298;2022-10-17T11:44:55;9.85;;;2.80;;
43620;SDS011;29213;50.770;7.298;2022-10-17T11:53:12;7.00;;;2.55;;
43620;SDS011;29213;50.770;7.298;2022-10-17T11:55:40;4.55;;;2.50;;
43620;SDS011;29213;50.770;7.298;2022-10-17T12:12:11;4.22;;;2.40;;
43620;SDS011;29213;50.770;7.298;2022-10-17T12:14:49;4.07;;;2.58;;
43620;SDS011;29213;50.770;7.298;2022-10-17T12:17:22;4.35;;;2.35;;
43620;SDS011;29213;50.770;7.298;2022-10-17T12:19:53;4.05;;;2.35;;
43620;SDS011;29213;50.770;7.298;2022-10-17T12:22:44;4.38;;;2.40;;
43620;SDS011;29213;50.770;7.298;2022-10-17T12:25:15;4.25;;;2.30;;
43620;SDS011;29213;50.770;7.298;2022-10-17T12:27:44;6.45;;;2.53;;
43620;SDS011;29213;50.770;7.298;2022-10-17T12:35:25;4.07;;;2.13;;
43620;SDS011;29213;50.770;7.298;2022-10-17T12:56:04;5.10;;;2.40;;
43620;SDS011;29213;50.770;7.298;2022-10-17T12:58:30;4.32;;;2.25;;
43620;SDS011;29213;50.770;7.298;2022-10-17T13:00:57;5.68;;;2.22;;
43620;SDS011;29213;50.770;7.298;2022-10-17T13:03:33;5.10;;;2.40;;
43620;SDS011;29213;50.770;7.298;2022-10-17T13:06:11;4.03;;;2.30;;
43620;SDS011;29213;50.770;7.298;2022-10-17T13:08:43;3.88;;;2.13;;
43620;SDS011;29213;50.770;7.298;2022-10-17T13:11:11;5.32;;;2.28;;
43620;SDS011;29213;50.770;7.298;2022-10-17T13:13:41;5.47;;;2.30;;
43620;SDS011;29213;50.770;7.298;2022-10-17T13:16:25;4.55;;;2.30;;
43620;SDS011;29213;50.770;7.298;2022-10-17T13:18:55;4.85;;;2.50;;
43620;SDS011;29213;50.770;7.298;2022-10-17T13:21:21;3.60;;;2.17;;
43620;SDS011;29213;50.770;7.298;2022-10-17T13:23:46;4.15;;;2.00;;
43620;SDS011;29213;50.770;7.298;2022-10-17T13:28:45;4.70;;;2.25;;
43620;SDS011;29213;50.770;7.298;2022-10-17T13:31:41;5.07;;;2.30;;
43620;SDS011;29213;50.770;7.298;2022-10-17T13:34:18;5.20;;;2.30;;
43620;SDS011;29213;50.770;7.298;2022-10-17T13:36:45;4.43;;;2.17;;
43620;SDS011;29213;50.770;7.298;2022-10-17T13:39:13;6.30;;;2.10;;
43620;SDS011;29213;50.770;7.298;2022-10-17T13:41:44;3.25;;;2.08;;
43620;SDS011;29213;50.770;7.298;2022-10-17T13:44:20;4.55;;;2.20;;
43620;SDS011;29213;50.770;7.298;2022-10-17T13:46:48;3.80;;;2.17;;
43620;SDS011;29213;50.770;7.298;2022-10-17T13:49:19;6.63;;;2.17;;
43620;SDS011;29213;50.770;7.298;2022-10-17T13:51:50;4.25;;;2.00;;
43620;SDS011;29213;50.770;7.298;2022-10-17T13:54:18;4.65;;;2.10;;
43620;SDS011;29213;50.770;7.298;2022-10-17T13:56:44;4.40;;;2.67;;
43620;SDS011;29213;50.770;7.298;2022-10-17T13:59:21;5.72;;;2.40;;
43620;SDS011;29213;50.770;7.298;2022-10-17T14:01:49;4.07;;;2.22;;
43620;SDS011;29213;50.770;7.298;2022-10-17T14:04:16;3.63;;;2.10;;
43620;SDS011;29213;50.770;7.298;2022-10-17T14:06:42;3.88;;;2.00;;
43620;SDS011;29213;50.770;7.298;2022-10-17T14:09:25;4.38;;;2.38;;
43620;SDS011;29213;50.770;7.298;2022-10-17T14:12:11;4.78;;;2.60;;
43620;SDS011;29213;50.770;7.298;2022-10-17T14:14:37;3.80;;;2.00;;
43620;SDS011;29213;50.770;7.298;2022-10-17T14:17:14;4.70;;;2.17;;
43620;SDS011;29213;50.770;7.298;2022-10-17T14:19:49;4.40;;;2.20;;
43620;SDS011;29213;50.770;7.298;2022-10-17T14:24:46;4.07;;;2.13;;
43620;SDS011;29213;50.770;7.298;2022-10-17T14:27:24;3.65;;;2.30;;
43620;SDS011;29213;50.770;7.298;2022-10-17T14:29:52;3.90;;;2.13;;
43620;SDS011;29213;50.770;7.298;2022-10-17T14:32:19;3.42;;;1.90;;
43620;SDS011;29213;50.770;7.298;2022-10-17T14:34:46;4.53;;;2.17;;
43620;SDS011;29213;50.770;7.298;2022-10-17T14:40:00;3.75;;;2.05;;
43620;SDS011;29213;50.770;7.298;2022-10-17T14:42:27;4.35;;;2.10;;
43620;SDS011;29213;50.770;7.298;2022-10-17T14:44:53;4.65;;;2.10;;
43620;SDS011;29213;50.770;7.298;2022-10-17T14:47:27;3.65;;;1.92;;
43620;SDS011;29213;50.770;7.298;2022-10-17T14:52:48;4.82;;;2.10;;
43620;SDS011;29213;50.770;7.298;2022-10-17T14:55:28;7.53;;;2.42;;
43620;SDS011;29213;50.770;7.298;2022-10-17T14:57:55;4.05;;;2.20;;
43620;SDS011;29213;50.770;7.298;2022-10-17T15:00:21;3.72;;;2.22;;
43620;SDS011;29213;50.770;7.298;2022-10-17T15:02:48;5.05;;;2.20;;
43620;SDS011;29213;50.770;7.298;2022-10-17T15:05:15;5.43;;;2.30;;
43620;SDS011;29213;50.770;7.298;2022-10-17T15:07:42;4.20;;;2.30;;
43620;SDS011;29213;50.770;7.298;2022-10-17T15:13:01;4.47;;;2.40;;
43620;SDS011;29213;50.770;7.298;2022-10-17T15:15:28;5.32;;;2.60;;
43620;SDS011;29213;50.770;7.298;2022-10-17T15:17:54;5.93;;;2.90;;
43620;SDS011;29213;50.770;7.298;2022-10-17T15:20:19;4.75;;;2.50;;
43620;SDS011;29213;50.770;7.298;2022-10-17T15:22:50;4.60;;;2.63;;
43620;SDS011;29213;50.770;7.298;2022-10-17T15:25:16;5.55;;;2.78;;
43620;SDS011;29213;50.770;7.298;2022-10-17T15:27:42;6.78;;;2.88;;
43620;SDS011;29213;50.770;7.298;2022-10-17T15:32:44;6.38;;;2.83;;
43620;SDS011;29213;50.770;7.298;2022-10-17T15:35:10;4.47;;;2.70;;
43620;SDS011;29213;50.770;7.298;2022-10-17T15:37:35;5.68;;;2.53;;
43620;SDS011;29213;50.770;7.298;2022-10-17T15:40:00;6.88;;;3.05;;
43620;SDS011;29213;50.770;7.298;2022-10-17T15:42:27;6.32;;;2.50;;
43620;SDS011;29213;50.770;7.298;2022-10-17T15:44:54;5.60;;;2.90;;
43620;SDS011;29213;50.770;7.298;2022-10-17T15:49:48;3.78;;;2.40;;
43620;SDS011;29213;50.770;7.298;2022-10-17T15:52:13;4.70;;;2.42;;
43620;SDS011;29213;50.770;7.298;2022-10-17T15:54:38;4.85;;;2.50;;
43620;SDS011;29213;50.770;7.298;2022-10-17T15:57:04;6.00;;;2.70;;
43620;SDS011;29213;50.770;7.298;2022-10-17T15:59:31;4.78;;;2.30;;
43620;SDS011;29213;50.770;7.298;2022-10-17T16:01:58;5.77;;;2.60;;
43620;SDS011;29213;50.770;7.298;2022-10-17T16:04:24;3.97;;;2.75;;
43620;SDS011;29213;50.770;7.298;2022-10-17T16:06:51;5.18;;;2.40;;
43620;SDS011;29213;50.770;7.298;2022-10-17T16:09:17;6.13;;;2.42;;
43620;SDS011;29213;50.770;7.298;2022-10-17T16:11:42;5.32;;;2.70;;
43620;SDS011;29213;50.770;7.298;2022-10-17T16:14:10;6.57;;;2.58;;
43620;SDS011;29213;50.770;7.298;2022-10-17T16:16:37;6.65;;;2.50;;
43620;SDS011;29213;50.770;7.298;2022-10-17T16:19:03;4.85;;;2.33;;
43620;SDS011;29213;50.770;7.298;2022-10-17T16:21:30;5.45;;;2.63;;
43620;SDS011;29213;50.770;7.298;2022-10-17T16:23:57;4.50;;;2.50;;
43620;SDS011;29213;50.770;7.298;2022-10-17T16:26:24;6.68;;;2.35;;
43620;SDS011;29213;50.770;7.298;2022-10-17T16:28:50;7.82;;;2.40;;
43620;SDS011;29213;50.770;7.298;2022-10-17T16:33:46;5.63;;;2.55;;
43620;SDS011;29213;50.770;7.298;2022-10-17T16:36:12;5.50;;;3.67;;
43620;SDS011;29213;50.770;7.298;2022-10-17T16:38:37;5.72;;;3.90;;
43620;SDS011;29213;50.770;7.298;2022-10-17T16:41:03;6.35;;;3.60;;
43620;SDS011;29213;50.770;7.298;2022-10-17T16:43:39;6.22;;;3.60;;
43620;SDS011;29213;50.770;7.298;2022-10-17T16:46:04;4.90;;;2.95;;
43620;SDS011;29213;50.770;7.298;2022-10-17T16:48:30;4.60;;;2.95;;
43620;SDS011;29213;50.770;7.298;2022-10-17T16:50:55;4.35;;;2.80;;
43620;SDS011;29213;50.770;7.298;2022-10-17T16:53:20;5.78;;;2.55;;
43620;SDS011;29213;50.770;7.298;2022-10-17T16:55:57;8.85;;;2.97;;
43620;SDS011;29213;50.770;7.298;2022-10-17T16:58:23;7.20;;;2.60;;
43620;SDS011;29213;50.770;7.298;2022-10-17T17:00:51;7.47;;;3.00;;
43620;SDS011;29213;50.770;7.298;2022-10-17T17:03:17;7.63;;;2.42;;
43620;SDS011;29213;50.770;7.298;2022-10-17T17:05:42;5.63;;;2.92;;
43620;SDS011;29213;50.770;7.298;2022-10-17T17:08:14;4.75;;;2.80;;
43620;SDS011;29213;50.770;7.298;2022-10-17T17:10:43;6.43;;;3.15;;
43620;SDS011;29213;50.770;7.298;2022-10-17T17:13:09;9.48;;;3.50;;
43620;SDS011;29213;50.770;7.298;2022-10-17T17:15:35;5.55;;;3.92;;
43620;SDS011;29213;50.770;7.298;2022-10-17T17:18:00;8.63;;;6.55;;